createdAt,value
2023-08-15T00:02:24.753Z,6.20
2023-08-15T00:04:51.792Z,6.10
2023-08-15T00:07:19.053Z,5.90
2023-08-15T00:09:46.416Z,6.00
2023-08-15T00:12:13.535Z,6.60
2023-08-15T00:14:42.461Z,6.10
2023-08-15T00:17:10.261Z,6.20
2023-08-15T00:19:37.418Z,6.50
2023-08-15T00:22:08.574Z,6.20
2023-08-15T00:24:35.769Z,6.60
2023-08-15T00:27:03.036Z,6.50
2023-08-15T00:29:30.667Z,6.60
2023-08-15T00:31:57.842Z,6.50
2023-08-15T00:34:24.968Z,6.20
2023-08-15T00:36:53.712Z,6.30
2023-08-15T00:39:20.745Z,6.30
2023-08-15T00:41:47.857Z,6.40
2023-08-15T00:44:15.056Z,5.70
2023-08-15T00:46:42.318Z,6.20
2023-08-15T00:49:09.458Z,5.90
2023-08-15T00:51:36.979Z,5.50
2023-08-15T00:54:04.296Z,6.10
2023-08-15T00:56:32.092Z,5.90
2023-08-15T00:58:59.962Z,5.90
2023-08-15T01:01:27.186Z,5.90
2023-08-15T01:03:54.494Z,5.90
2023-08-15T01:06:22.706Z,5.80
2023-08-15T01:08:49.830Z,5.50
2023-08-15T01:11:16.996Z,5.90
2023-08-15T01:13:48.740Z,5.60
2023-08-15T01:16:29.669Z,5.80
2023-08-15T01:19:12.314Z,5.60
2023-08-15T01:21:42.301Z,5.70
2023-08-15T01:24:09.341Z,5.60
2023-08-15T01:26:36.650Z,5.90
2023-08-15T01:29:03.876Z,6.10
2023-08-15T01:31:45.417Z,6.00
2023-08-15T01:34:18.058Z,5.90
2023-08-15T01:36:49.867Z,6.40
2023-08-15T01:39:22.413Z,6.30
2023-08-15T01:41:49.474Z,6.10
2023-08-15T01:44:16.584Z,6.50
2023-08-15T01:46:48.106Z,6.40
2023-08-15T01:49:15.626Z,6.60
2023-08-15T01:51:43.130Z,6.50
2023-08-15T01:54:10.327Z,6.70
2023-08-15T01:56:38.184Z,6.90
2023-08-15T01:59:05.274Z,6.90
2023-08-15T02:01:32.494Z,7.00
2023-08-15T02:03:59.664Z,7.10
2023-08-15T02:06:26.822Z,6.50
2023-08-15T02:08:53.965Z,7.20
2023-08-15T02:11:22.824Z,6.60
2023-08-15T02:13:49.933Z,7.70
2023-08-15T02:16:19.493Z,7.50
2023-08-15T02:18:46.745Z,7.70
2023-08-15T02:21:15.643Z,7.50
2023-08-15T02:23:43.500Z,7.40
2023-08-15T02:26:10.717Z,7.10
2023-08-15T02:28:38.285Z,7.10
2023-08-15T02:31:06.724Z,7.40
2023-08-15T02:33:36.302Z,7.30
2023-08-15T02:36:07.294Z,7.50
2023-08-15T02:38:35.413Z,6.90
2023-08-15T02:41:03.692Z,7.40
2023-08-15T02:43:31.572Z,7.80
2023-08-15T02:48:27.973Z,7.30
2023-08-15T02:50:55.230Z,7.10
2023-08-15T02:53:23.972Z,7.30
2023-08-15T02:55:52.310Z,6.90
2023-08-15T02:58:19.783Z,7.30
2023-08-15T03:00:47.514Z,7.30
2023-08-15T03:03:15.726Z,7.30
2023-08-15T03:05:43.089Z,7.40
2023-08-15T03:08:10.375Z,7.10
2023-08-15T03:10:40.194Z,7.70
2023-08-15T03:13:07.472Z,6.80
2023-08-15T03:15:35.703Z,6.90
2023-08-15T03:18:03.198Z,7.40
2023-08-15T03:20:31.202Z,7.10
2023-08-15T03:22:58.360Z,7.00
2023-08-15T03:25:26.639Z,6.80
2023-08-15T03:27:55.868Z,7.00
2023-08-15T03:30:23.171Z,7.20
2023-08-15T03:32:51.745Z,7.20
2023-08-15T03:35:20.699Z,6.90
2023-08-15T03:37:49.886Z,7.30
2023-08-15T03:40:16.996Z,6.80
2023-08-15T03:42:44.690Z,7.50
2023-08-15T03:45:12.805Z,7.40
2023-08-15T03:47:39.946Z,7.90
2023-08-15T03:50:07.611Z,7.80
2023-08-15T03:52:37.298Z,7.90
2023-08-15T03:55:04.611Z,8.60
2023-08-15T04:00:01.536Z,7.20
2023-08-15T04:02:28.696Z,7.80
2023-08-15T04:04:56.669Z,7.10
2023-08-15T04:07:23.869Z,7.40
2023-08-15T04:09:50.936Z,7.10
2023-08-15T04:12:17.989Z,7.60
2023-08-15T04:14:45.388Z,8.50
2023-08-15T04:17:12.608Z,8.20
2023-08-15T04:19:39.721Z,8.80
2023-08-15T04:22:06.790Z,8.90
2023-08-15T04:24:35.267Z,9.80
2023-08-15T04:27:03.087Z,11.40
2023-08-15T04:29:30.340Z,12.40
2023-08-15T04:31:57.571Z,12.00
2023-08-15T04:34:24.697Z,11.60
2023-08-15T04:36:51.900Z,11.50
2023-08-15T04:39:19.494Z,10.40
2023-08-15T04:41:46.658Z,12.50
2023-08-15T04:44:13.760Z,12.50
2023-08-15T04:46:44.001Z,13.30
2023-08-15T04:49:12.299Z,12.50
2023-08-15T04:51:39.361Z,12.50
2023-08-15T04:54:06.735Z,12.20
2023-08-15T04:56:34.070Z,12.60
2023-08-15T04:59:01.252Z,12.50
2023-08-15T05:01:31.787Z,12.00
2023-08-15T05:03:58.869Z,11.00
2023-08-15T05:06:26.113Z,11.00
2023-08-15T05:08:53.827Z,9.20
2023-08-15T05:11:20.956Z,9.10
2023-08-15T05:13:48.067Z,8.10
2023-08-15T05:16:16.770Z,8.50
2023-08-15T05:18:44.001Z,9.00
2023-08-15T05:21:11.108Z,8.70
2023-08-15T05:23:38.295Z,8.70
2023-08-15T05:26:05.443Z,7.90
2023-08-15T05:28:32.669Z,8.80
2023-08-15T05:31:00.808Z,8.50
2023-08-15T05:33:28.343Z,8.30
2023-08-15T05:35:55.477Z,7.90
2023-08-15T05:38:23.060Z,7.50
2023-08-15T05:40:50.243Z,7.30
2023-08-15T05:43:17.357Z,8.00
2023-08-15T05:45:46.980Z,8.00
2023-08-15T05:48:14.180Z,7.00
2023-08-15T05:50:41.583Z,7.20
2023-08-15T05:53:08.801Z,6.70
2023-08-15T05:55:35.974Z,7.80
2023-08-15T05:58:03.130Z,7.20
2023-08-15T06:00:30.374Z,6.60
2023-08-15T06:02:58.418Z,7.00
2023-08-15T06:05:31.909Z,6.90
2023-08-15T06:08:01.050Z,7.00
2023-08-15T06:10:28.507Z,6.90
2023-08-15T06:12:55.665Z,6.00
2023-08-15T06:15:22.700Z,6.50
2023-08-15T06:17:49.863Z,6.50
2023-08-15T06:20:17.189Z,6.10
2023-08-15T06:22:44.353Z,6.00
2023-08-15T06:25:11.496Z,6.60
2023-08-15T06:27:39.118Z,6.60
2023-08-15T06:30:07.044Z,6.30
2023-08-15T06:32:34.256Z,6.60
2023-08-15T06:35:02.808Z,6.20
2023-08-15T06:37:29.940Z,6.50
2023-08-15T06:39:56.977Z,5.80
2023-08-15T06:42:24.779Z,6.00
2023-08-15T06:45:17.717Z,5.90
2023-08-15T06:47:44.978Z,6.10
2023-08-15T06:50:12.349Z,5.90
2023-08-15T06:52:39.766Z,6.20
2023-08-15T06:55:08.131Z,5.90
2023-08-15T06:57:35.427Z,5.60
2023-08-15T07:00:02.837Z,5.80
2023-08-15T07:02:31.815Z,6.00
2023-08-15T07:07:26.050Z,5.60
2023-08-15T07:09:53.270Z,6.20
2023-08-15T07:12:20.564Z,5.50
2023-08-15T07:14:47.872Z,5.30
2023-08-15T07:17:15.236Z,5.70
2023-08-15T07:19:42.385Z,5.50
2023-08-15T07:22:11.483Z,5.50
2023-08-15T07:24:38.667Z,5.80
2023-08-15T07:27:05.828Z,5.50
2023-08-15T07:29:34.112Z,5.50
2023-08-15T07:32:01.417Z,5.60
2023-08-15T07:34:28.903Z,5.40
2023-08-15T07:36:56.077Z,5.50
2023-08-15T07:39:23.265Z,6.10
2023-08-15T07:41:50.371Z,5.60
2023-08-15T07:44:17.510Z,5.60
2023-08-15T07:46:44.656Z,5.20
2023-08-15T07:49:11.770Z,5.40
2023-08-15T07:51:38.970Z,5.30
2023-08-15T07:54:06.492Z,5.60
2023-08-15T07:56:35.456Z,5.80
2023-08-15T07:59:04.753Z,5.50
2023-08-15T08:01:32.073Z,5.70
2023-08-15T08:03:59.334Z,5.90
2023-08-15T08:06:39.123Z,5.40
2023-08-15T08:09:10.148Z,5.00
2023-08-15T08:11:37.501Z,5.30
2023-08-15T08:14:05.095Z,5.20
2023-08-15T08:16:32.397Z,5.40
2023-08-15T08:18:59.514Z,5.90
2023-08-15T08:21:26.787Z,6.00
2023-08-15T08:23:54.038Z,5.80
2023-08-15T08:26:21.226Z,5.30
2023-08-15T08:28:49.661Z,5.50
2023-08-15T08:31:16.811Z,5.60
2023-08-15T08:33:43.987Z,5.70
2023-08-15T08:36:11.138Z,5.60
2023-08-15T08:38:38.997Z,5.60
2023-08-15T08:41:06.537Z,5.60
2023-08-15T08:43:35.215Z,5.80
2023-08-15T08:46:02.499Z,4.80
2023-08-15T08:48:29.659Z,5.00
2023-08-15T08:50:56.885Z,5.30
2023-08-15T08:53:24.488Z,5.10
2023-08-15T08:55:52.277Z,5.40
2023-08-15T09:00:50.516Z,4.90
2023-08-15T09:03:20.086Z,4.90
2023-08-15T09:05:47.712Z,5.00
2023-08-15T09:08:15.291Z,5.00
2023-08-15T09:10:42.754Z,4.80
2023-08-15T09:13:09.941Z,4.60
2023-08-15T09:15:38.246Z,4.90
2023-08-15T09:18:08.347Z,4.30
2023-08-15T09:20:41.673Z,4.50
2023-08-15T09:23:10.197Z,4.30
2023-08-15T09:25:38.422Z,4.60
2023-08-15T09:28:09.303Z,4.70
2023-08-15T09:30:38.514Z,4.70
2023-08-15T09:33:06.509Z,4.60
2023-08-15T09:35:37.341Z,4.40
2023-08-15T09:38:09.011Z,4.50
2023-08-15T09:40:36.470Z,4.20
2023-08-15T09:43:04.699Z,4.60
2023-08-15T09:45:31.837Z,4.20
2023-08-15T09:47:59.036Z,4.20
2023-08-15T09:50:26.277Z,4.80
2023-08-15T09:52:53.412Z,4.60
2023-08-15T09:55:20.726Z,4.50
2023-08-15T09:57:48.410Z,4.40
2023-08-15T10:00:18.890Z,4.40
2023-08-15T10:02:53.539Z,4.30
2023-08-15T10:05:22.571Z,4.60
2023-08-15T10:07:50.608Z,4.50
2023-08-15T10:10:17.732Z,4.20
2023-08-15T10:12:45.148Z,4.40
2023-08-15T10:15:12.565Z,4.00
2023-08-15T10:17:39.791Z,3.70
2023-08-15T10:20:12.252Z,4.40
2023-08-15T10:22:41.191Z,4.10
2023-08-15T10:25:23.857Z,4.60
2023-08-15T10:27:52.412Z,4.60
2023-08-15T10:33:16.749Z,4.30
2023-08-15T10:38:23.750Z,5.20
2023-08-15T10:40:52.754Z,4.40
2023-08-15T10:43:27.854Z,4.40
2023-08-15T10:46:01.494Z,4.70
2023-08-15T10:48:51.753Z,4.50
2023-08-15T10:51:30.500Z,4.30
2023-08-15T10:54:02.748Z,4.00
2023-08-15T10:56:31.487Z,4.20
2023-08-15T10:58:59.367Z,4.30
2023-08-15T11:01:30.954Z,4.40
2023-08-15T11:03:58.720Z,4.30
2023-08-15T11:06:25.969Z,4.40
2023-08-15T11:08:54.678Z,4.50
2023-08-15T11:11:21.798Z,4.50
2023-08-15T11:13:50.102Z,4.60
2023-08-15T11:16:19.075Z,4.30
2023-08-15T11:18:46.453Z,4.50
2023-08-15T11:21:14.673Z,4.80
2023-08-15T11:23:41.879Z,4.80
2023-08-15T11:26:10.467Z,4.50
2023-08-15T11:28:38.198Z,4.20
2023-08-15T11:31:21.869Z,4.60
2023-08-15T11:33:53.408Z,4.50
2023-08-15T11:36:23.789Z,4.70
2023-08-15T11:38:51.005Z,4.60
2023-08-15T11:41:18.149Z,4.70
2023-08-15T11:43:45.781Z,4.80
2023-08-15T11:46:12.926Z,4.50
2023-08-15T11:48:45.556Z,4.80
2023-08-15T11:51:12.756Z,4.60
2023-08-15T11:53:49.989Z,4.80
2023-08-15T11:56:17.205Z,4.60
2023-08-15T11:58:45.804Z,4.20
2023-08-15T12:01:14.683Z,4.80
2023-08-15T12:03:41.946Z,4.90
2023-08-15T12:06:12.149Z,4.80
2023-08-15T12:08:41.115Z,4.90
2023-08-15T12:11:12.612Z,4.90
2023-08-15T12:13:41.062Z,4.80
2023-08-15T12:18:36.833Z,4.80
2023-08-15T12:21:06.072Z,4.60
2023-08-15T12:23:33.273Z,4.60
2023-08-15T12:26:00.436Z,4.40
2023-08-15T12:28:29.198Z,4.10
2023-08-15T12:30:56.915Z,4.50
2023-08-15T12:35:54.285Z,4.30
2023-08-15T12:38:22.245Z,4.60
2023-08-15T12:40:51.769Z,4.60
2023-08-15T12:43:18.851Z,4.70
2023-08-15T12:45:46.365Z,4.70
2023-08-15T12:48:13.710Z,4.90
2023-08-15T12:50:41.418Z,4.60
2023-08-15T12:53:10.366Z,4.90
2023-08-15T12:55:37.795Z,4.40
2023-08-15T12:58:05.207Z,4.40
2023-08-15T13:00:32.768Z,4.30
2023-08-15T13:03:00.049Z,4.40
2023-08-15T13:05:28.034Z,4.60
2023-08-15T13:07:57.425Z,4.50
2023-08-15T13:10:24.528Z,4.60
2023-08-15T13:12:53.461Z,4.60
2023-08-15T13:15:20.685Z,4.70
2023-08-15T13:17:47.983Z,4.60
2023-08-15T13:20:16.000Z,4.50
2023-08-15T13:22:43.279Z,4.60
2023-08-15T13:25:10.872Z,5.00
2023-08-15T13:27:38.079Z,5.00
2023-08-15T13:30:06.065Z,4.70
2023-08-15T13:32:33.874Z,4.90
2023-08-15T13:35:01.201Z,4.60
2023-08-15T13:37:28.312Z,4.60
2023-08-15T13:39:55.604Z,4.30
2023-08-15T13:42:35.947Z,4.80
2023-08-15T13:45:10.095Z,4.80
2023-08-15T13:47:39.564Z,4.60
2023-08-15T13:50:08.027Z,4.50
2023-08-15T13:52:38.443Z,5.00
2023-08-15T13:55:06.693Z,4.90
2023-08-15T13:57:34.005Z,4.80
2023-08-15T14:00:06.670Z,4.70
2023-08-15T14:02:39.497Z,5.30
2023-08-15T14:05:07.489Z,5.10
2023-08-15T14:07:34.643Z,4.60
2023-08-15T14:10:01.824Z,4.40
2023-08-15T14:12:29.101Z,4.50
2023-08-15T14:14:56.317Z,4.30
2023-08-15T14:19:51.757Z,4.40
2023-08-15T14:22:19.837Z,4.80
2023-08-15T14:24:51.170Z,5.00
2023-08-15T14:27:20.837Z,4.70
2023-08-15T14:29:50.969Z,4.60
2023-08-15T14:32:18.597Z,5.20
2023-08-15T14:34:45.868Z,5.20
2023-08-15T14:37:13.070Z,5.20
2023-08-15T14:39:40.212Z,4.90
2023-08-15T14:42:07.377Z,4.70
2023-08-15T14:44:35.820Z,5.40
2023-08-15T14:49:33.626Z,5.20
2023-08-15T14:52:03.453Z,4.80
2023-08-15T14:54:30.687Z,4.70
2023-08-15T14:56:57.879Z,5.10
2023-08-15T14:59:25.018Z,4.90
2023-08-15T15:01:52.952Z,4.90
2023-08-15T15:04:20.216Z,4.80
2023-08-15T15:06:47.774Z,4.70
2023-08-15T15:09:14.914Z,5.20
2023-08-15T15:11:42.018Z,4.50
2023-08-15T15:14:09.097Z,4.60
2023-08-15T15:16:36.360Z,5.00
2023-08-15T15:19:03.498Z,5.00
2023-08-15T15:21:32.382Z,4.80
2023-08-15T15:23:59.462Z,4.70
2023-08-15T15:26:26.572Z,4.90
2023-08-15T15:28:53.871Z,4.50
2023-08-15T15:31:21.431Z,4.80
2023-08-15T15:33:48.613Z,5.00
2023-08-15T15:36:16.369Z,4.40
2023-08-15T15:38:43.562Z,4.90
2023-08-15T15:41:10.741Z,5.00
2023-08-15T15:43:37.959Z,5.20
2023-08-15T15:46:05.143Z,5.80
2023-08-15T15:48:34.559Z,5.30
2023-08-15T15:51:02.784Z,5.20
2023-08-15T15:53:31.849Z,5.30
2023-08-15T15:55:59.128Z,5.60
2023-08-15T15:58:26.245Z,5.50
2023-08-15T16:00:56.745Z,5.10
2023-08-15T16:03:24.581Z,5.00
2023-08-15T16:05:51.834Z,4.90
2023-08-15T16:08:19.009Z,5.70
2023-08-15T16:10:46.152Z,5.00
2023-08-15T16:13:13.316Z,5.70
2023-08-15T16:15:40.574Z,5.60
2023-08-15T16:18:07.856Z,5.40
2023-08-15T16:20:35.063Z,5.60
2023-08-15T16:23:02.657Z,6.10
2023-08-15T16:25:31.462Z,5.70
2023-08-15T16:28:00.328Z,6.20
2023-08-15T16:30:28.470Z,6.40
2023-08-15T16:32:55.829Z,6.20
2023-08-15T16:35:23.862Z,6.00
2023-08-15T16:37:52.213Z,6.10
2023-08-15T16:40:19.264Z,6.00
2023-08-15T16:42:46.561Z,5.70
2023-08-15T16:45:13.700Z,6.20
2023-08-15T16:47:40.806Z,6.50
2023-08-15T16:50:08.502Z,6.30
2023-08-15T16:52:35.652Z,6.20
2023-08-15T16:55:02.803Z,6.20
2023-08-15T16:57:30.699Z,5.70
2023-08-15T16:59:57.758Z,5.40
2023-08-15T17:02:25.408Z,5.60
2023-08-15T17:04:52.980Z,6.10
2023-08-15T17:07:20.139Z,5.90
2023-08-15T17:09:47.341Z,6.20
2023-08-15T17:12:14.448Z,5.40
2023-08-15T17:14:41.932Z,5.60
2023-08-15T17:17:09.030Z,5.70
2023-08-15T17:19:36.941Z,5.40
2023-08-15T17:22:04.091Z,5.70
2023-08-15T17:24:31.216Z,5.60
2023-08-15T17:26:58.442Z,5.80
2023-08-15T17:29:26.364Z,5.80
2023-08-15T17:31:53.572Z,5.60
2023-08-15T17:34:20.750Z,5.90
2023-08-15T17:36:47.921Z,5.90
2023-08-15T17:39:15.577Z,5.60
2023-08-15T17:41:45.664Z,5.60
2023-08-15T17:44:13.084Z,6.10
2023-08-15T17:46:40.264Z,5.70
2023-08-15T17:49:07.496Z,5.70
2023-08-15T17:51:34.623Z,5.90
2023-08-15T17:54:01.798Z,5.60
2023-08-15T17:56:28.952Z,5.40
2023-08-15T17:58:56.054Z,5.60
2023-08-15T18:01:23.627Z,6.20
2023-08-15T18:03:50.961Z,6.00
2023-08-15T18:06:18.361Z,5.70
2023-08-15T18:08:45.560Z,5.70
2023-08-15T18:11:12.643Z,6.00
2023-08-15T18:13:40.320Z,5.90
2023-08-15T18:16:07.492Z,5.80
2023-08-15T18:18:35.915Z,5.50
2023-08-15T18:21:03.470Z,5.80
2023-08-15T18:23:30.612Z,6.10
2023-08-15T18:25:57.767Z,5.50
2023-08-15T18:28:24.900Z,5.90
2023-08-15T18:30:52.074Z,5.90
2023-08-15T18:33:19.651Z,6.10
2023-08-15T18:35:46.827Z,6.10
2023-08-15T18:38:13.961Z,5.40
2023-08-15T18:40:42.922Z,6.00
2023-08-15T18:43:09.969Z,6.10
2023-08-15T18:45:44.854Z,6.20
2023-08-15T18:48:12.686Z,5.70
2023-08-15T18:50:47.749Z,5.60
2023-08-15T18:53:14.813Z,5.60
2023-08-15T18:55:41.981Z,5.60
2023-08-15T18:58:10.737Z,5.90
2023-08-15T19:03:06.841Z,5.70
2023-08-15T19:05:36.890Z,5.60
2023-08-15T19:08:04.086Z,5.70
2023-08-15T19:10:31.247Z,5.60
2023-08-15T19:12:58.444Z,5.50
2023-08-15T19:15:25.839Z,6.40
2023-08-15T19:17:53.566Z,6.20
2023-08-15T19:20:42.374Z,5.50
2023-08-15T19:23:11.380Z,5.80
2023-08-15T19:25:39.091Z,5.80
2023-08-15T19:28:06.811Z,6.10
2023-08-15T19:30:34.758Z,5.80
2023-08-15T19:33:02.031Z,6.00
2023-08-15T19:35:29.235Z,6.10
2023-08-15T19:37:56.631Z,6.20
2023-08-15T19:40:23.867Z,6.10
2023-08-15T19:42:51.941Z,6.20
2023-08-15T19:45:19.715Z,5.70
2023-08-15T19:47:47.088Z,6.10
2023-08-15T19:50:16.431Z,5.90
2023-08-15T19:52:43.666Z,6.10
2023-08-15T19:55:12.134Z,6.20
2023-08-15T19:57:41.698Z,6.40
2023-08-15T20:00:12.022Z,6.10
2023-08-15T20:02:41.085Z,6.30
2023-08-15T20:05:09.614Z,6.10
2023-08-15T20:07:38.481Z,6.20
2023-08-15T20:10:11.523Z,6.30
2023-08-15T20:12:40.183Z,6.70
2023-08-15T20:15:08.992Z,6.30
2023-08-15T20:17:36.189Z,7.10
2023-08-15T20:20:03.654Z,6.40
2023-08-15T20:22:32.621Z,6.60
2023-08-15T20:27:27.926Z,6.80
2023-08-15T20:29:58.126Z,6.70
2023-08-15T20:32:26.159Z,7.20
2023-08-15T20:34:54.263Z,6.80
2023-08-15T20:37:21.541Z,6.80
2023-08-15T20:39:49.517Z,6.60
2023-08-15T20:42:18.500Z,7.00
2023-08-15T20:44:46.069Z,6.60
2023-08-15T20:47:13.223Z,6.80
2023-08-15T20:49:42.559Z,6.80
2023-08-15T20:52:11.311Z,7.00
2023-08-15T20:54:38.590Z,6.90
2023-08-15T20:57:05.891Z,6.90
2023-08-15T20:59:34.774Z,7.20
2023-08-15T21:02:03.422Z,6.70
2023-08-15T21:04:30.770Z,7.00
2023-08-15T21:06:58.070Z,6.70
2023-08-15T21:09:25.812Z,6.80
2023-08-15T21:11:53.035Z,7.10
2023-08-15T21:14:20.251Z,7.10
2023-08-15T21:16:47.579Z,7.40
2023-08-15T21:19:14.758Z,6.70
2023-08-15T21:21:41.913Z,6.80
2023-08-15T21:24:09.165Z,6.90
2023-08-15T21:26:37.408Z,7.40
2023-08-15T21:29:06.016Z,7.40
2023-08-15T21:31:34.865Z,7.20
2023-08-15T21:34:02.071Z,7.00
2023-08-15T21:36:29.258Z,7.00
2023-08-15T21:38:56.445Z,7.60
2023-08-15T21:41:24.229Z,7.20
2023-08-15T21:43:51.335Z,7.40
2023-08-15T21:46:18.576Z,7.10
2023-08-15T21:48:45.762Z,7.30
2023-08-15T21:51:12.980Z,7.20
2023-08-15T21:53:40.069Z,7.30
2023-08-15T21:56:07.381Z,7.00
2023-08-15T21:58:34.567Z,7.10
2023-08-15T22:01:01.807Z,7.10
2023-08-15T22:03:31.433Z,7.40
2023-08-15T22:05:58.666Z,6.80
2023-08-15T22:08:25.904Z,6.90
2023-08-15T22:10:53.117Z,7.70
2023-08-15T22:13:20.310Z,7.00
2023-08-15T22:15:47.616Z,6.90
2023-08-15T22:18:20.474Z,6.90
2023-08-15T22:20:49.942Z,7.00
2023-08-15T22:23:17.160Z,7.00
2023-08-15T22:25:47.920Z,7.80
2023-08-15T22:28:15.945Z,7.00
2023-08-15T22:30:43.966Z,7.10
2023-08-15T22:33:11.147Z,7.60
2023-08-15T22:38:07.955Z,7.10
2023-08-15T22:40:35.551Z,7.40
2023-08-15T22:43:02.719Z,7.20
2023-08-15T22:45:31.961Z,7.40
2023-08-15T22:50:26.458Z,7.30
2023-08-15T22:52:56.972Z,7.30
2023-08-15T22:55:24.234Z,7.10
2023-08-15T22:57:51.421Z,7.20
2023-08-15T23:00:18.618Z,7.40
2023-08-15T23:02:45.950Z,7.10
2023-08-15T23:05:13.302Z,7.00
2023-08-15T23:10:09.890Z,7.00
2023-08-15T23:12:37.165Z,7.00
2023-08-15T23:15:05.108Z,7.30
2023-08-15T23:17:32.348Z,7.90
2023-08-15T23:20:00.436Z,6.90
2023-08-15T23:22:27.629Z,7.20
2023-08-15T23:24:54.892Z,7.20
2023-08-15T23:27:22.508Z,6.60
2023-08-15T23:29:50.110Z,7.10
2023-08-15T23:32:17.232Z,6.80
2023-08-15T23:34:44.434Z,7.10
2023-08-15T23:37:12.914Z,6.80
2023-08-15T23:39:41.451Z,7.00
2023-08-15T23:42:08.759Z,7.10
2023-08-15T23:44:35.942Z,7.50
2023-08-15T23:47:03.337Z,7.00
2023-08-15T23:49:30.555Z,6.80
2023-08-15T23:51:57.929Z,7.50
2023-08-15T23:54:25.771Z,7.00
2023-08-15T23:56:52.935Z,6.70
2023-08-15T23:59:20.133Z,7.90
